Погода Балчикна неделю

Добрич, Болгария

24 - 30 июня
  • 24июня
    Сегодня
    +19°
    +32°
    Ясно и безоблачно
    ВремяПогодаТемператураВлажностьДавлениеВетер, м/сВероятность осадков
    00:00Практически безоблачно+18°C81 %740 мм1.8 м/с2 %
    03:00Практически безоблачно+18°C82 %740 мм1.1 м/с2 %
    06:00Ясно и безоблачно+16°C85 %740 мм2.3 м/с2 %
    09:00Ясно и безоблачно+24°C48 %741 мм2.7 м/с2 %
    12:00Ясно и безоблачно+30°C34 %741 мм3.3 м/с2 %
    15:00Ясно и безоблачно+32°C30 %741 мм3.4 м/с3 %
    18:00Ясно и безоблачно+31°C30 %740 мм3.8 м/с4 %
    21:00Ясно и безоблачно+26°C57 %741 мм2.9 м/с2 %
  • 25июня
    Вторник
    +17°
    +32°
    Практически безоблачно
    ВремяПогодаТемператураВлажностьДавлениеВетер, м/сВероятность осадков
    00:00Ясно и безоблачно+22°C73 %742 мм2.4 м/с2 %
    03:00Ясно и безоблачно+20°C76 %742 мм2.1 м/с2 %
    06:00Ясно и безоблачно+19°C80 %742 мм2.2 м/с2 %
    09:00Ясно и безоблачно+25°C52 %743 мм4.1 м/с2 %
    12:00Ясно и безоблачно+28°C39 %743 мм3.5 м/с2 %
    15:00Практически безоблачно+30°C34 %743 мм3.5 м/с5 %
    18:00Практически безоблачно+29°C42 %743 мм3.9 м/с7 %
    21:00Ясно и безоблачно+24°C62 %744 мм2.5 м/с2 %
  • 26июня
    Среда
    +17°
    +31°
    Облачно с прояснениями
    ВремяПогодаТемператураВлажностьДавлениеВетер, м/сВероятность осадков
    00:00Ясно и безоблачно+20°C76 %743 мм1.5 м/с2 %
    03:00Ясно и безоблачно+20°C72 %743 мм0.5 м/с2 %
    06:00Ясно и безоблачно+17°C85 %743 мм1.3 м/с2 %
    09:00Ясно и безоблачно+24°C46 %744 мм3.4 м/с2 %
    12:00Ясно и безоблачно+28°C34 %744 мм2.9 м/с2 %
    15:00Облачно с прояснениями+31°C31 %743 мм3.2 м/с2 %
    18:00Ясно и безоблачно+28°C44 %743 мм5.9 м/с2 %
    21:00Ясно и безоблачно+23°C63 %743 мм3.3 м/с2 %
  • 27июня
    Четверг
    +15°
    +29°
    Ясно и безоблачно
    ВремяПогодаТемператураВлажностьДавлениеВетер, м/сВероятность осадков
    00:00Ясно и безоблачно+20°C81 %743 мм2.8 м/с2 %
    03:00Ясно и безоблачно+17°C94 %742 мм1.8 м/с2 %
    06:00Ясно и безоблачно+17°C91 %742 мм0.6 м/с2 %
    09:00Ясно и безоблачно+23°C55 %742 мм3.7 м/с2 %
    12:00Ясно и безоблачно+27°C36 %742 мм4.4 м/с2 %
    15:00Ясно и безоблачно+28°C31 %742 мм4.8 м/с2 %
    18:00Ясно и безоблачно+27°C34 %741 мм4.8 м/с2 %
    21:00Ясно и безоблачно+23°C47 %742 мм2.7 м/с2 %
  • 28июня
    Пятница
    +17°
    +31°
    Облачно с прояснениями
    ВремяПогодаТемператураВлажностьДавлениеВетер, м/сВероятность осадков
    00:00Ясно и безоблачно+18°C69 %741 мм2.0 м/с2 %
    03:00Ясно и безоблачно+18°C66 %741 мм0.9 м/с2 %
    06:00Ясно и безоблачно+16°C76 %741 мм1.7 м/с2 %
    09:00Ясно и безоблачно+24°C40 %742 мм3.3 м/с2 %
    12:00Ясно и безоблачно+28°C30 %742 мм3.9 м/с2 %
    15:00Облачно с прояснениями+30°C26 %741 мм4.6 м/с3 %
    18:00Ясно и безоблачно+29°C35 %741 мм4.9 м/с4 %
    21:00Ясно и безоблачно+25°C51 %741 мм3.0 м/с2 %
Мы используем cookies
Соглашаюсь